Time;durP1;ratioP1;P1;durP2;ratioP2;P2;SDS_P1;SDS_P2;PMS_P1;PMS_P2;Temp;Humidity;BMP_temperature;BMP_pressure;BME280_temperature;BME280_humidity;BME280_pressure;Samples;Min_cycle;Max_cycle;Signal;HPM_P1;HPM_P2
2021/12/21 00:00:13;;;;;;;9.73;5.20;;;;;;;-0.46;55.39;94923.00;5126386;27;20130;-70
2021/12/21 00:02:40;;;;;;;9.48;5.22;;;;;;;-0.54;55.88;94911.44;5109512;27;20085;-70
2021/12/21 00:05:05;;;;;;;10.68;5.05;;;;;;;-0.57;56.24;94925.13;5127079;27;20080;-70
2021/12/21 00:07:31;;;;;;;11.95;5.22;;;;;;;-0.48;56.13;94924.78;5131252;27;20035;-70
2021/12/21 00:09:56;;;;;;;9.35;5.72;;;;;;;-0.48;55.77;94924.78;5111591;27;20031;-70
2021/12/21 00:12:25;;;;;;;9.10;5.82;;;;;;;-0.63;55.97;94907.50;5125848;27;20034;-70
2021/12/21 00:15:07;;;;;;;8.93;5.82;;;;;;;-0.53;56.38;94923.28;5121040;27;20043;-70
2021/12/21 00:20:26;;;;;;;8.32;5.15;;;;;;;-0.48;55.65;94932.44;5122790;27;20031;-71
2021/12/21 00:25:21;;;;;;;7.30;4.82;;;;;;;-0.55;56.76;94931.03;5130131;27;20053;-70
2021/12/21 00:27:48;;;;;;;10.48;5.22;;;;;;;-0.62;56.37;94921.94;5117155;27;20448;-70
2021/12/21 00:30:13;;;;;;;8.85;5.65;;;;;;;-0.51;56.60;94931.72;5112408;27;20087;-71
2021/12/21 00:32:39;;;;;;;13.90;7.43;;;;;;;-0.54;56.32;94922.47;5127047;27;20038;-70
2021/12/21 00:35:05;;;;;;;14.40;7.65;;;;;;;-0.66;57.49;94935.69;5119890;27;20019;-70
2021/12/21 00:37:30;;;;;;;10.35;6.50;;;;;;;-0.51;57.81;94932.56;5122978;27;20126;-71
2021/12/21 00:39:56;;;;;;;9.10;6.10;;;;;;;-0.51;57.43;94939.38;5124642;27;20031;-70
2021/12/21 00:42:21;;;;;;;9.95;5.45;;;;;;;-0.50;57.17;94941.06;5136057;27;20027;-70
2021/12/21 00:44:47;;;;;;;8.40;5.30;;;;;;;-0.46;56.81;94938.31;5120695;27;20035;-70
2021/12/21 00:47:15;;;;;;;9.40;5.65;;;;;;;-0.60;57.63;94940.56;5129051;27;20114;-70
2021/12/21 00:49:45;;;;;;;9.93;5.25;;;;;;;-0.65;58.14;94941.63;5112822;27;20031;-70
2021/12/21 00:52:10;;;;;;;10.48;5.78;;;;;;;-0.59;57.66;94939.66;5111655;27;20108;-71
2021/12/21 00:54:36;;;;;;;8.90;5.38;;;;;;;-0.58;58.01;94946.47;5130855;27;20052;-70
2021/12/21 00:57:04;;;;;;;10.70;5.85;;;;;;;-0.55;58.03;94948.06;5114876;27;20104;-70
2021/12/21 00:59:30;;;;;;;15.20;7.68;;;;;;;-0.62;58.34;94950.00;5124232;27;20038;-70
2021/12/21 01:01:55;;;;;;;8.85;5.85;;;;;;;-0.62;57.98;94944.06;5125309;27;20491;-70
2021/12/21 01:04:26;;;;;;;11.40;6.43;;;;;;;-0.77;58.64;94942.91;5128518;27;20469;-70
2021/12/21 01:07:31;;;;;;;9.95;6.05;;;;;;;-0.76;58.74;94947.94;5102162;27;20052;-71
2021/12/21 01:12:30;;;;;;;9.88;5.93;;;;;;;-0.74;58.74;94961.50;5122562;27;20122;-70
2021/12/21 01:15:13;;;;;;;9.02;5.95;;;;;;;-0.76;58.82;94959.88;5108856;28;20113;-70
2021/12/21 01:17:58;;;;;;;8.00;6.00;;;;;;;-0.92;58.73;94957.91;5125202;27;20027;-70
2021/12/21 01:20:51;;;;;;;9.55;5.47;;;;;;;-0.81;58.55;94962.59;5123982;27;20125;-70
2021/12/21 01:25:48;;;;;;;10.50;5.60;;;;;;;-0.91;58.85;94954.44;5111176;28;20408;-71
2021/12/21 01:31:27;;;;;;;11.02;6.07;;;;;;;-0.88;58.76;94973.91;5119775;27;20049;-70
2021/12/21 01:36:20;;;;;;;11.48;6.53;;;;;;;-0.85;59.51;94966.16;5127754;27;20533;-71
2021/12/21 01:39:03;;;;;;;9.48;6.05;;;;;;;-0.87;59.35;94965.38;5117423;27;20088;-70
2021/12/21 01:51:56;;;;;;;8.82;5.97;;;;;;;-1.24;58.33;94953.09;5130000;27;20041;-70
2021/12/21 01:54:21;;;;;;;9.68;5.70;;;;;;;-1.08;57.90;94969.53;5124307;27;20031;-70
2021/12/21 01:56:46;;;;;;;8.50;5.75;;;;;;;-1.10;57.86;94971.28;5096560;28;20035;-70
2021/12/21 01:59:12;;;;;;;9.18;5.93;;;;;;;-1.02;57.45;94959.09;5109022;28;20039;-70
2021/12/21 02:01:37;;;;;;;7.45;5.40;;;;;;;-1.08;56.82;94956.78;5111823;27;20035;-70
2021/12/21 02:04:03;;;;;;;8.18;5.50;;;;;;;-1.16;56.77;94958.75;5124304;27;20032;-70
2021/12/21 02:06:28;;;;;;;8.98;5.47;;;;;;;-1.16;56.77;94940.91;5114814;27;20115;-71
2021/12/21 02:08:54;;;;;;;10.48;5.40;;;;;;;-1.17;56.37;94954.53;5096544;28;20092;-70
2021/12/21 02:11:20;;;;;;;7.93;5.20;;;;;;;-1.25;55.98;94947.16;5126211;27;20035;-71
2021/12/21 02:13:48;;;;;;;7.43;5.50;;;;;;;-1.22;55.96;94946.22;5135171;27;20063;-70
2021/12/21 02:16:24;;;;;;;9.32;5.25;;;;;;;-1.25;56.19;94959.09;5123696;27;20421;-70
2021/12/21 02:23:42;;;;;;;7.97;4.85;;;;;;;-1.33;56.34;94955.97;5133600;27;20035;-70
2021/12/21 02:31:38;;;;;;;6.18;3.95;;;;;;;-1.41;55.21;94946.84;5118313;27;20031;-70
2021/12/21 02:34:03;;;;;;;7.53;4.15;;;;;;;-1.40;54.52;94955.31;5118427;27;20550;-70
2021/12/21 02:36:29;;;;;;;6.00;4.10;;;;;;;-1.47;54.57;94947.06;5128119;27;20031;-71
2021/12/21 02:38:55;;;;;;;6.75;3.90;;;;;;;-1.36;54.22;94959.44;5096647;27;20027;-70
2021/12/21 02:41:20;;;;;;;5.50;3.88;;;;;;;-1.29;54.09;94955.78;5081587;27;20028;-70
2021/12/21 02:43:46;;;;;;;7.93;4.10;;;;;;;-1.37;54.36;94963.69;5112916;28;20031;-71
2021/12/21 02:46:11;;;;;;;7.00;3.88;;;;;;;-1.49;55.24;94953.91;5105403;28;20036;-70
2021/12/21 02:48:37;;;;;;;5.53;3.60;;;;;;;-1.44;54.41;94961.41;5130204;27;20031;-71
2021/12/21 02:51:02;;;;;;;6.40;3.60;;;;;;;-1.50;55.06;94959.91;5133016;27;20037;-70
2021/12/21 02:53:27;;;;;;;5.70;3.60;;;;;;;-1.36;54.22;94955.19;5116090;27;20034;-71
2021/12/21 02:55:53;;;;;;;5.65;3.25;;;;;;;-1.44;54.77;94946.97;5132938;27;20037;-70
2021/12/21 02:58:18;;;;;;;6.35;3.72;;;;;;;-1.47;55.07;94959.81;5133196;27;20035;-70
2021/12/21 03:00:44;;;;;;;8.07;4.30;;;;;;;-1.57;55.69;94951.63;5130835;27;20112;-70
2021/12/21 03:03:13;;;;;;;5.75;4.22;;;;;;;-1.50;55.08;94959.91;5129684;27;20367;-70
2021/12/21 03:05:44;;;;;;;7.43;4.55;;;;;;;-1.48;56.25;94958.13;5124480;27;20035;-70
2021/12/21 03:08:15;;;;;;;8.75;4.97;;;;;;;-1.50;55.99;94966.72;5093922;28;20027;-70
2021/12/21 03:10:57;;;;;;;6.65;4.85;;;;;;;-1.40;55.84;94960.41;5113690;28;20140;-71
2021/12/21 03:16:06;;;;;;;10.00;4.50;;;;;;;-1.44;56.31;94977.53;5112445;28;20134;-70
2021/12/21 03:18:32;;;;;;;6.93;3.85;;;;;;;-1.56;55.84;94967.78;5115913;27;20027;-70
2021/12/21 03:20:57;;;;;;;8.48;5.00;;;;;;;-1.49;56.08;94969.22;5115318;27;20031;-70
2021/12/21 03:23:22;;;;;;;13.13;7.00;;;;;;;-1.50;55.67;94976.94;5134048;27;20160;-70
2021/12/21 03:25:48;;;;;;;15.48;7.43;;;;;;;-1.39;56.30;94980.78;5111359;28;20036;-70
2021/12/21 03:28:13;;;;;;;15.45;7.07;;;;;;;-1.39;57.19;94983.31;5111864;28;20028;-70
2021/12/21 03:30:39;;;;;;;12.38;5.80;;;;;;;-1.45;55.53;94986.09;5122639;27;20026;-70
2021/12/21 03:33:04;;;;;;;9.57;5.13;;;;;;;-1.39;55.78;94982.50;5131711;27;20027;-71
2021/12/21 03:35:30;;;;;;;9.32;4.90;;;;;;;-1.34;55.21;94983.16;5122345;27;20481;-70
2021/12/21 03:37:55;;;;;;;8.77;4.45;;;;;;;-1.29;54.49;94986.38;5112106;28;20497;-70
2021/12/21 03:40:20;;;;;;;24.10;12.52;;;;;;;-1.33;53.94;94984.00;5132012;27;20034;-70
2021/12/21 03:42:46;;;;;;;14.95;7.55;;;;;;;-1.31;53.38;94972.00;5132321;27;20035;-70
2021/12/21 03:45:11;;;;;;;7.20;4.30;;;;;;;-1.24;53.74;94988.78;5126761;27;20034;-70
2021/12/21 03:47:37;;;;;;;5.80;3.60;;;;;;;-1.24;53.21;94983.69;5112817;28;20038;-70
2021/12/21 03:50:11;;;;;;;8.05;3.88;;;;;;;-1.23;53.44;94978.50;5122250;27;20416;-70
2021/12/21 03:52:36;;;;;;;5.53;3.25;;;;;;;-1.20;52.12;94985.22;5113361;27;20031;-70
2021/12/21 03:55:03;;;;;;;8.45;3.78;;;;;;;-1.29;52.59;95000.84;5094389;28;20408;-70
2021/12/21 03:57:30;;;;;;;7.00;3.92;;;;;;;-1.33;52.24;95004.41;5087709;28;20036;-71
2021/12/21 03:59:56;;;;;;;5.43;3.30;;;;;;;-1.30;52.17;95015.31;5111494;27;20499;-70
2021/12/21 04:02:23;;;;;;;4.80;2.90;;;;;;;-1.36;51.81;95024.00;5094229;28;20032;-71
2021/12/21 04:04:49;;;;;;;5.30;2.90;;;;;;;-1.40;52.18;95017.31;5112083;27;20028;-70
2021/12/21 04:07:15;;;;;;;7.03;3.30;;;;;;;-1.26;52.14;95016.03;5094445;28;20077;-71
2021/12/21 04:09:40;;;;;;;7.47;3.33;;;;;;;-1.33;51.54;95024.78;5105517;27;20066;-70
2021/12/21 04:12:06;;;;;;;5.40;3.10;;;;;;;-1.29;51.41;95014.41;5132550;27;20027;-70
2021/12/21 04:14:35;;;;;;;4.75;2.63;;;;;;;-1.30;51.25;95020.41;5107138;27;20056;-70
2021/12/21 04:17:01;;;;;;;4.70;2.63;;;;;;;-1.27;51.04;95027.13;5113931;27;20511;-70
2021/12/21 04:19:26;;;;;;;3.90;2.33;;;;;;;-1.24;50.53;95032.13;5094207;27;20040;-70
2021/12/21 04:21:51;;;;;;;9.65;6.90;;;;;;;-1.35;51.12;95028.19;5112783;27;20030;-70
2021/12/21 04:24:17;;;;;;;5.88;3.75;;;;;;;-1.33;51.60;95022.25;5115102;27;20039;-71
2021/12/21 04:26:42;;;;;;;5.05;3.30;;;;;;;-1.37;51.51;95008.75;5131494;27;20096;-70
2021/12/21 04:29:08;;;;;;;11.82;6.97;;;;;;;-1.37;52.12;95024.03;5129366;27;20051;-70
2021/12/21 04:31:33;;;;;;;21.10;9.73;;;;;;;-1.29;51.42;95021.25;5097349;28;20035;-70
2021/12/21 04:33:59;;;;;;;8.73;3.58;;;;;;;-1.39;51.33;95021.56;5112878;27;20059;-70
2021/12/21 04:36:24;;;;;;;16.58;8.60;;;;;;;-1.27;51.04;95022.84;5129443;27;20522;-70
2021/12/21 04:38:51;;;;;;;6.00;3.53;;;;;;;-1.27;51.16;95012.66;5110934;28;20059;-71
2021/12/21 04:41:26;;;;;;;8.55;4.40;;;;;;;-1.24;51.41;95016.81;5113780;27;20027;-71
2021/12/21 04:43:52;;;;;;;3.78;2.58;;;;;;;-1.27;51.02;95010.09;5112512;27;20032;-70
2021/12/21 04:46:17;;;;;;;4.88;2.80;;;;;;;-1.27;50.68;95022.84;5104165;27;20096;-71
2021/12/21 04:48:43;;;;;;;5.43;2.75;;;;;;;-1.23;50.78;95026.94;5110458;27;20052;-70
2021/12/21 04:51:08;;;;;;;3.60;2.70;;;;;;;-1.27;50.84;95019.47;5118215;27;20084;-70
2021/12/21 04:53:34;;;;;;;4.70;2.80;;;;;;;-1.36;50.18;95003.59;5118055;27;20032;-70
2021/12/21 04:55:59;;;;;;;4.22;2.58;;;;;;;-1.40;49.68;95007.13;5109804;27;20027;-70
2021/12/21 04:58:25;;;;;;;4.75;2.70;;;;;;;-1.34;50.04;95011.19;5131422;27;20045;-70
2021/12/21 05:00:50;;;;;;;4.07;2.20;;;;;;;-1.33;48.61;95019.69;5128611;27;20031;-70
2021/12/21 05:03:16;;;;;;;4.47;2.60;;;;;;;-1.37;48.59;95026.59;5110307;28;20443;-71
2021/12/21 05:05:41;;;;;;;3.88;2.42;;;;;;;-1.37;48.30;95024.84;5110453;28;20027;-70
2021/12/21 05:08:13;;;;;;;4.93;2.22;;;;;;;-1.53;48.65;95018.63;5111481;28;20046;-71
2021/12/21 05:10:51;;;;;;;6.53;2.15;;;;;;;-1.59;48.89;95016.25;5117465;27;20019;-70
2021/12/21 05:13:17;;;;;;;4.93;3.15;;;;;;;-1.53;49.47;95031.38;5079662;28;20088;-70
2021/12/21 05:15:42;;;;;;;4.93;3.25;;;;;;;-1.60;49.54;95022.25;5110095;28;20473;-71
2021/12/21 05:18:09;;;;;;;4.82;2.67;;;;;;;-1.54;49.45;95027.13;5111006;27;20051;-70
2021/12/21 05:20:34;;;;;;;4.97;2.65;;;;;;;-1.45;49.73;95043.84;5093876;28;20028;-71
2021/12/21 05:23:00;;;;;;;6.45;2.80;;;;;;;-1.52;49.34;95038.13;5128055;27;20034;-70
2021/12/21 05:25:25;;;;;;;7.15;4.28;;;;;;;-1.51;50.11;95042.31;5130231;28;20031;-70
2021/12/21 05:27:50;;;;;;;6.43;3.10;;;;;;;-1.54;50.28;95039.03;5129765;27;20027;-70
2021/12/21 05:30:16;;;;;;;6.50;3.53;;;;;;;-1.53;50.80;95061.94;5109696;28;20043;-70
2021/12/21 05:32:42;;;;;;;6.22;3.40;;;;;;;-1.54;50.77;95060.25;5110351;28;20039;-70
2021/12/21 05:35:08;;;;;;;16.40;7.35;;;;;;;-1.58;50.84;95056.16;5113390;28;20335;-70
2021/12/21 05:37:34;;;;;;;4.72;2.75;;;;;;;-1.60;51.03;95047.72;5130177;28;20042;-70
2021/12/21 05:40:15;;;;;;;7.60;4.30;;;;;;;-1.53;51.26;95059.41;5116797;28;20031;-70
2021/12/21 05:42:40;;;;;;;9.32;4.75;;;;;;;-1.63;51.59;95065.66;5126744;28;20023;-70
2021/12/21 05:45:06;;;;;;;5.65;4.30;;;;;;;-1.62;51.75;95060.50;5121262;27;20023;-70
2021/12/21 05:47:32;;;;;;;7.90;4.60;;;;;;;-1.58;51.31;95068.91;5120275;28;20035;-70
2021/12/21 05:49:57;;;;;;;12.15;4.25;;;;;;;-1.64;51.25;95069.91;5122594;28;20065;-70
2021/12/21 05:52:23;;;;;;;7.90;4.00;;;;;;;-1.74;51.52;95062.59;5088802;28;20500;-70
2021/12/21 05:54:49;;;;;;;4.47;2.70;;;;;;;-1.62;51.69;95080.03;5123830;28;20485;-71
2021/12/21 05:57:15;;;;;;;5.78;3.92;;;;;;;-1.73;51.33;95074.44;5116914;28;20016;-70
2021/12/21 05:59:40;;;;;;;5.68;2.97;;;;;;;-1.63;51.28;95093.69;5093960;28;20497;-70
2021/12/21 06:02:06;;;;;;;8.13;4.30;;;;;;;-1.71;51.61;95080.34;5112051;28;20134;-70
2021/12/21 06:04:31;;;;;;;6.28;3.30;;;;;;;-1.60;51.22;95091.88;5105860;28;20031;-70
2021/12/21 06:06:57;;;;;;;4.88;2.58;;;;;;;-1.72;51.22;95065.94;5092333;28;20093;-70
2021/12/21 06:09:23;;;;;;;7.78;4.43;;;;;;;-1.52;51.82;95096.72;5109847;28;20023;-70
2021/12/21 06:12:09;;;;;;;6.60;3.20;;;;;;;-1.54;51.89;95093.38;5109319;28;20416;-70
2021/12/21 06:14:53;;;;;;;9.43;3.63;;;;;;;-1.52;51.75;95101.00;5128722;28;20076;-70
2021/12/21 06:23:16;;;;;;;4.97;3.38;;;;;;;-1.53;52.77;95117.16;5111425;28;20130;-70
2021/12/21 06:25:51;;;;;;;6.80;4.10;;;;;;;-1.55;52.44;95107.03;5113523;28;20042;-70
2021/12/21 06:28:17;;;;;;;6.78;4.65;;;;;;;-1.50;52.34;95117.91;5113205;28;20473;-71
2021/12/21 06:30:42;;;;;;;12.50;5.32;;;;;;;-1.38;52.01;95127.72;5113222;28;20031;-70
2021/12/21 06:33:08;;;;;;;5.15;3.33;;;;;;;-1.42;51.88;95132.94;5123670;27;20761;-70
2021/12/21 06:35:34;;;;;;;5.15;3.10;;;;;;;-1.47;51.92;95125.47;5090912;27;20042;-70
2021/12/21 06:38:00;;;;;;;5.13;3.35;;;;;;;-1.48;51.67;95133.97;5095596;28;20024;-70
2021/12/21 06:40:26;;;;;;;5.45;2.97;;;;;;;-1.54;52.17;95138.44;5127851;27;20038;-70
2021/12/21 06:42:53;;;;;;;4.03;2.60;;;;;;;-1.48;51.42;95128.88;5117749;27;20027;-70
2021/12/21 06:53:33;;;;;;;6.10;3.50;;;;;;;-1.20;52.11;95159.44;5125500;27;20463;-70
2021/12/21 06:55:59;;;;;;;7.22;4.00;;;;;;;-1.26;52.16;95153.69;5130167;27;20520;-71
2021/12/21 06:58:24;;;;;;;7.53;4.13;;;;;;;-1.24;52.40;95154.50;5109275;27;20034;-70
2021/12/21 07:00:50;;;;;;;10.98;7.85;;;;;;;-1.17;52.35;95161.03;5123604;27;20027;-70
2021/12/21 07:03:15;;;;;;;9.73;4.50;;;;;;;-1.20;53.20;95151.81;5085097;27;20409;-70
2021/12/21 07:05:41;;;;;;;4.50;3.25;;;;;;;-1.17;52.83;95163.59;5116440;27;20068;-70
2021/12/21 07:08:15;;;;;;;4.78;3.35;;;;;;;-1.15;53.25;95172.88;5114521;27;20064;-70
2021/12/21 07:10:41;;;;;;;5.72;3.17;;;;;;;-1.03;52.82;95181.00;5123740;27;20051;-70
2021/12/21 07:18:35;;;;;;;7.35;4.05;;;;;;;-1.01;51.97;95180.09;5140522;27;20415;-70
2021/12/21 07:21:01;;;;;;;6.32;3.28;;;;;;;-1.03;51.34;95188.66;5131033;27;20031;-70
2021/12/21 07:23:27;;;;;;;4.32;2.47;;;;;;;-0.96;51.39;95201.19;5134276;27;20110;-70
2021/12/21 07:25:53;;;;;;;4.85;3.10;;;;;;;-0.95;51.19;95199.44;5096997;27;20055;-70
2021/12/21 07:28:18;;;;;;;7.50;4.20;;;;;;;-0.93;51.16;95210.44;5131572;27;20460;-70
2021/12/21 07:30:44;;;;;;;4.10;2.53;;;;;;;-1.01;51.39;95210.69;5130488;27;20027;-70
2021/12/21 07:33:09;;;;;;;3.55;2.53;;;;;;;-1.00;51.57;95202.16;5111629;27;20042;-70
2021/12/21 07:35:34;;;;;;;5.03;3.13;;;;;;;-0.82;51.23;95205.84;5114618;27;20046;-70
2021/12/21 07:38:00;;;;;;;4.50;2.95;;;;;;;-0.72;50.86;95198.72;5135908;27;20514;-70
2021/12/21 07:40:25;;;;;;;8.38;3.70;;;;;;;-0.58;50.32;95211.88;5131592;27;20038;-70
2021/12/21 07:42:51;;;;;;;7.68;4.35;;;;;;;-0.61;50.24;95209.41;5117404;27;20030;-71
2021/12/21 07:45:16;;;;;;;6.90;4.07;;;;;;;-0.51;49.69;95199.72;5135955;27;20035;-70
2021/12/21 07:47:42;;;;;;;4.90;3.13;;;;;;;-0.53;49.85;95207.47;5131561;27;20023;-71
2021/12/21 07:50:08;;;;;;;5.82;3.50;;;;;;;-0.49;49.72;95203.91;5131351;27;20027;-70
2021/12/21 07:52:34;;;;;;;4.15;3.15;;;;;;;-0.36;48.82;95203.47;5114759;27;20033;-70
2021/12/21 07:54:59;;;;;;;4.78;3.13;;;;;;;-0.31;49.09;95206.72;5133505;27;20034;-70
2021/12/21 07:57:24;;;;;;;6.38;3.00;;;;;;;-0.34;49.29;95202.53;5121102;27;20031;-70
2021/12/21 07:59:50;;;;;;;5.60;3.42;;;;;;;-0.24;49.42;95218.41;5122346;27;20047;-71
2021/12/21 08:02:16;;;;;;;7.30;3.70;;;;;;;-0.27;49.66;95218.50;5128504;27;20031;-70
2021/12/21 08:04:43;;;;;;;7.63;3.00;;;;;;;-0.15;49.43;95212.13;5118616;27;20150;-70
2021/12/21 08:07:13;;;;;;;4.50;2.97;;;;;;;0.01;49.19;95210.72;5102313;27;20030;-71
2021/12/21 08:09:42;;;;;;;5.43;3.53;;;;;;;0.14;48.93;95224.72;5126289;27;20241;-71
2021/12/21 08:14:41;;;;;;;5.97;3.53;;;;;;;0.16;48.75;95219.53;5123277;27;20044;-69
2021/12/21 08:17:06;;;;;;;6.18;3.55;;;;;;;0.33;49.47;95234.28;5121434;27;20023;-69
2021/12/21 08:19:32;;;;;;;4.93;3.10;;;;;;;0.27;48.53;95225.09;5124699;27;20039;-69
2021/12/21 08:21:57;;;;;;;5.15;3.20;;;;;;;0.15;48.50;95230.66;5093712;27;20109;-69
2021/12/21 08:24:22;;;;;;;6.45;3.38;;;;;;;-0.01;48.90;95246.50;5119395;27;20023;-69
2021/12/21 08:26:48;;;;;;;11.55;4.78;;;;;;;0.07;48.84;95250.53;5116498;27;20019;-69
2021/12/21 08:29:13;;;;;;;10.55;5.40;;;;;;;0.14;48.24;95255.38;5119377;27;20059;-69
2021/12/21 08:31:39;;;;;;;16.63;7.93;;;;;;;0.25;48.77;95242.22;5123934;27;20028;-69
2021/12/21 08:34:04;;;;;;;12.52;7.80;;;;;;;0.30;48.75;95265.88;5124526;27;20046;-69
2021/12/21 08:36:31;;;;;;;13.43;7.15;;;;;;;0.29;48.52;95254.00;5131039;27;20019;-69
2021/12/21 08:38:56;;;;;;;10.95;7.75;;;;;;;0.30;48.44;95258.22;5112527;27;20057;-69
2021/12/21 08:41:23;;;;;;;6.50;4.43;;;;;;;0.27;48.24;95249.84;5131352;27;20488;-69
2021/12/21 08:43:48;;;;;;;10.10;3.80;;;;;;;0.08;48.72;95244.53;5131229;27;20416;-70
2021/12/21 08:46:14;;;;;;;5.00;3.20;;;;;;;0.12;48.71;95251.22;5113543;27;20035;-69
2021/12/21 08:48:39;;;;;;;4.70;3.20;;;;;;;0.37;48.13;95241.78;5113955;27;20031;-70
2021/12/21 08:51:05;;;;;;;8.32;5.10;;;;;;;0.48;48.49;95248.25;5127843;27;20390;-70
2021/12/21 08:53:30;;;;;;;16.08;10.07;;;;;;;0.46;47.92;95230.38;5117227;27;20031;-71
2021/12/21 08:55:56;;;;;;;19.40;9.57;;;;;;;0.81;46.74;95251.28;5110866;27;20035;-70
2021/12/21 08:58:22;;;;;;;10.68;6.25;;;;;;;0.83;46.25;95242.63;5111724;28;20062;-70
2021/12/21 09:00:49;;;;;;;7.60;5.30;;;;;;;1.07;45.91;95250.25;5093330;28;20031;-69
2021/12/21 09:03:14;;;;;;;6.78;3.90;;;;;;;1.23;46.24;95247.94;5110338;28;20485;-70
2021/12/21 09:05:40;;;;;;;12.20;6.40;;;;;;;1.25;45.24;95246.97;5124401;27;20280;-70
2021/12/21 09:08:06;;;;;;;9.50;5.47;;;;;;;1.47;45.58;95243.56;5124212;27;20034;-69
2021/12/21 09:10:32;;;;;;;7.88;4.65;;;;;;;1.59;44.07;95243.09;5095482;27;20031;-70
2021/12/21 09:12:57;;;;;;;9.02;4.95;;;;;;;1.72;44.11;95251.06;5110854;27;20038;-69
2021/12/21 09:15:23;;;;;;;8.07;4.63;;;;;;;1.68;43.48;95242.69;5097610;27;20023;-69
2021/12/21 09:17:49;;;;;;;12.00;7.63;;;;;;;1.81;44.16;95255.81;5112676;27;20106;-69
2021/12/21 09:20:16;;;;;;;5.97;3.50;;;;;;;1.55;44.05;95254.31;5123568;27;20027;-70
2021/12/21 09:22:42;;;;;;;8.85;3.38;;;;;;;1.67;44.37;95248.72;5107825;28;20048;-69
2021/12/21 09:25:08;;;;;;;7.30;4.63;;;;;;;1.68;43.42;95247.81;5110697;27;20054;-69
2021/12/21 09:27:33;;;;;;;21.30;10.07;;;;;;;1.66;44.37;95252.16;5111092;28;20042;-69
2021/12/21 09:29:58;;;;;;;16.77;6.22;;;;;;;1.47;44.53;95223.06;5107298;28;20066;-69
2021/12/21 09:32:25;;;;;;;23.33;10.90;;;;;;;1.53;44.24;95240.75;5091117;28;20505;-70
2021/12/21 09:34:50;;;;;;;12.15;6.53;;;;;;;1.62;43.92;95244.69;5106334;28;20042;-69
2021/12/21 09:37:18;;;;;;;29.35;14.65;;;;;;;1.75;43.92;95246.66;5129243;28;20404;-69
2021/12/21 09:39:45;;;;;;;10.63;5.47;;;;;;;1.83;43.17;95237.81;5109836;28;20042;-70
2021/12/21 09:42:13;;;;;;;20.67;10.35;;;;;;;1.80;43.28;95231.09;5128759;28;20080;-69
2021/12/21 09:44:38;;;;;;;10.43;5.00;;;;;;;1.92;43.05;95233.16;5111010;28;20035;-70
2021/12/21 09:47:06;;;;;;;29.27;12.00;;;;;;;1.93;42.63;95241.69;5122346;27;20481;-70
2021/12/21 09:49:31;;;;;;;17.75;8.50;;;;;;;1.70;42.92;95246.03;5128262;28;20699;-70
2021/12/21 09:51:57;;;;;;;20.85;9.82;;;;;;;1.77;43.71;95247.44;5095143;28;20019;-70
2021/12/21 09:54:23;;;;;;;15.07;8.13;;;;;;;1.63;43.25;95249.72;5136909;27;20048;-69
2021/12/21 09:56:48;;;;;;;7.07;3.75;;;;;;;1.42;43.23;95242.91;5114675;27;20027;-69
2021/12/21 09:59:14;;;;;;;6.22;4.25;;;;;;;1.37;43.18;95239.72;5118255;27;20043;-69
2021/12/21 10:01:39;;;;;;;10.98;6.18;;;;;;;1.23;43.89;95247.94;5133180;27;20106;-69
2021/12/21 10:04:04;;;;;;;8.40;5.70;;;;;;;0.91;44.77;95246.63;5117307;27;20043;-69
2021/12/21 10:06:30;;;;;;;9.35;5.63;;;;;;;0.81;44.48;95259.78;5118085;27;20024;-69
2021/12/21 10:09:06;;;;;;;9.25;4.97;;;;;;;0.69;44.41;95265.31;5095894;27;20031;-69
2021/12/21 10:11:31;;;;;;;9.32;5.00;;;;;;;0.63;44.89;95255.34;5133258;27;20105;-70
2021/12/21 10:14:04;;;;;;;6.28;3.45;;;;;;;0.84;44.09;95251.97;5105877;27;20035;-70
2021/12/21 10:16:30;;;;;;;10.77;6.70;;;;;;;0.93;44.48;95250.78;5133609;27;20031;-70
2021/12/21 10:18:55;;;;;;;7.60;4.57;;;;;;;1.04;44.29;95243.53;5133207;27;20369;-69
2021/12/21 10:21:21;;;;;;;8.57;4.60;;;;;;;1.02;42.98;95247.03;5131951;27;20027;-69
2021/12/21 10:23:47;;;;;;;14.10;5.88;;;;;;;1.02;43.22;95257.28;5127942;27;20043;-70
2021/12/21 10:26:23;;;;;;;7.78;4.07;;;;;;;0.99;43.03;95252.28;5109702;27;20028;-70
2021/12/21 10:28:58;;;;;;;18.88;3.90;;;;;;;1.21;42.90;95254.84;5125152;27;20136;-69
2021/12/21 10:31:27;;;;;;;6.88;3.90;;;;;;;1.32;43.08;95250.13;5132565;27;20534;-70
2021/12/21 10:33:54;;;;;;;7.50;4.82;;;;;;;1.26;43.75;95243.53;5127248;27;20036;-70
2021/12/21 10:36:20;;;;;;;7.10;4.40;;;;;;;1.43;42.70;95244.59;5117251;27;20107;-70
2021/12/21 10:38:51;;;;;;;8.68;4.93;;;;;;;1.34;43.40;95251.75;5095111;27;20114;-70
2021/12/21 10:41:27;;;;;;;10.65;4.72;;;;;;;1.30;44.27;95251.91;5097636;27;20055;-70
2021/12/21 10:44:07;;;;;;;7.93;3.90;;;;;;;1.30;43.32;95254.47;5127236;27;20036;-70
2021/12/21 10:46:34;;;;;;;7.97;4.75;;;;;;;1.07;43.50;95269.00;5113923;27;20023;-70
2021/12/21 10:49:16;;;;;;;7.82;5.60;;;;;;;1.04;43.95;95256.34;5133234;27;20023;-69
2021/12/21 10:51:53;;;;;;;;;;;;;;;1.05;44.36;95257.16;5132875;27;20027;-70
2021/12/21 10:54:46;;;;;;;24.17;12.68;;;;;;;0.74;43.81;95272.84;5133927;27;19919;-70
2021/12/21 10:57:19;;;;;;;11.10;5.78;;;;;;;0.67;44.56;95274.81;5128320;27;20047;-70
2021/12/21 10:59:52;;;;;;;20.98;13.82;;;;;;;0.72;44.25;95262.66;5126462;27;20023;-70
2021/12/21 11:02:24;;;;;;;8.63;4.88;;;;;;;0.40;45.16;95258.72;5121639;27;20027;-70
2021/12/21 11:04:54;;;;;;;9.25;4.35;;;;;;;0.49;44.43;95260.13;5129314;27;20516;-70
2021/12/21 11:10:00;;;;;;;11.40;5.22;;;;;;;0.54;44.49;95260.78;5127377;27;20027;-70
2021/12/21 11:12:27;;;;;;;8.40;5.40;;;;;;;0.51;44.91;95259.19;5103633;27;20084;-71
2021/12/21 11:14:54;;;;;;;6.13;4.13;;;;;;;0.49;44.51;95260.94;5128134;27;20034;-69
2021/12/21 11:17:20;;;;;;;6.57;3.88;;;;;;;0.60;44.41;95263.13;5116172;27;20027;-71
2021/12/21 11:19:45;;;;;;;8.10;4.50;;;;;;;0.62;45.02;95251.94;5116010;27;20038;-70
2021/12/21 11:22:11;;;;;;;8.05;4.68;;;;;;;0.71;44.43;95253.31;5118829;27;20031;-70
2021/12/21 11:24:37;;;;;;;16.50;7.20;;;;;;;0.79;44.59;95269.22;5102975;27;20035;-70
2021/12/21 11:27:03;;;;;;;6.70;4.60;;;;;;;0.45;44.25;95249.19;5128769;27;20049;-70
2021/12/21 11:29:29;;;;;;;7.93;5.75;;;;;;;0.35;44.52;95253.78;5075693;28;20494;-70
2021/12/21 11:31:55;;;;;;;6.55;4.43;;;;;;;0.28;44.90;95251.50;5111093;27;20053;-72
2021/12/21 11:34:24;;;;;;;7.90;5.60;;;;;;;0.25;44.67;95244.75;5091893;28;20401;-71
2021/12/21 11:39:38;;;;;;;7.78;5.13;;;;;;;0.02;46.03;95237.09;5128390;27;20510;-69
2021/12/21 11:42:05;;;;;;;7.88;5.15;;;;;;;0.16;45.97;95242.53;5112440;27;20537;-70
2021/12/21 11:45:20;;;;;;;10.60;5.03;;;;;;;0.13;46.63;95252.88;5128472;27;20038;-72
2021/12/21 11:48:11;;;;;;;5.93;4.35;;;;;;;-0.15;43.60;95258.09;5111754;27;20050;-71
2021/12/21 11:50:44;;;;;;;6.45;4.15;;;;;;;-0.25;42.79;95258.41;5114645;27;20120;-69
2021/12/21 11:53:13;;;;;;;5.43;3.67;;;;;;;-0.30;42.36;95259.47;5113831;27;20072;-69
2021/12/21 11:55:40;;;;;;;10.15;5.50;;;;;;;-0.41;42.60;95259.81;5132819;27;20050;-70
2021/12/21 11:58:21;;;;;;;11.98;7.75;;;;;;;-0.20;43.07;95262.53;5126628;27;20032;-69
2021/12/21 12:01:00;;;;;;;8.07;4.70;;;;;;;-0.12;42.70;95248.59;5097867;27;20504;-70
2021/12/21 12:03:27;;;;;;;8.20;5.03;;;;;;;-0.04;42.44;95251.75;5116646;27;20092;-69
2021/12/21 12:05:53;;;;;;;9.73;6.10;;;;;;;0.04;43.36;95243.00;5114645;27;20043;-70
2021/12/21 12:08:18;;;;;;;10.85;6.18;;;;;;;0.09;43.60;95256.44;5132820;27;20078;-70
2021/12/21 12:10:58;;;;;;;13.43;5.60;;;;;;;0.09;42.95;95247.03;5111780;27;20485;-69
2021/12/21 12:13:30;;;;;;;34.10;11.52;;;;;;;0.25;43.00;95246.50;5130353;27;20081;-68
2021/12/21 12:16:05;;;;;;;32.70;13.05;;;;;;;0.38;42.99;95252.84;5114384;27;20435;-69
2021/12/21 12:18:45;;;;;;;14.75;7.72;;;;;;;0.28;42.80;95244.69;5111111;28;20040;-68
2021/12/21 12:21:16;;;;;;;9.10;5.97;;;;;;;0.49;43.01;95255.00;5108815;27;20113;-68
2021/12/21 12:24:00;;;;;;;8.63;4.80;;;;;;;0.63;42.82;95247.66;5098408;28;20058;-68
2021/12/21 12:26:39;;;;;;;14.02;8.25;;;;;;;0.93;43.28;95260.19;5114416;27;20032;-68
2021/12/21 12:29:15;;;;;;;9.23;4.88;;;;;;;0.99;42.13;95272.75;5118641;27;20042;-69
2021/12/21 12:31:41;;;;;;;5.72;4.05;;;;;;;0.91;42.01;95272.22;5126231;27;20110;-69
2021/12/21 12:34:07;;;;;;;6.90;4.10;;;;;;;0.87;42.16;95267.22;5132540;27;20557;-69
2021/12/21 12:36:46;;;;;;;8.35;5.03;;;;;;;0.87;41.62;95279.19;5109607;28;20019;-69
2021/12/21 12:39:25;;;;;;;9.18;5.10;;;;;;;0.86;41.14;95280.91;5110754;28;20038;-69
2021/12/21 12:41:50;;;;;;;7.97;4.47;;;;;;;0.83;41.28;95278.44;5117703;27;20105;-69
2021/12/21 12:44:23;;;;;;;6.32;3.33;;;;;;;0.76;40.35;95269.34;5132165;27;20031;-69